Cape Moreton — VRGG6 — position and weather

sailwx.info

Track history (hours):
 
Tides and Currents Weather Stations Pressure Air Temp Water Temp Dewpoint Dewpoint Depression Visibility Wind Speed Wind Dir Waves Ship Positions

Cape Moreton

Last reported at 2017-Nov-18 00:29 UTC. Time now 2017-Nov-18 01:11 UTC.
Position N 49°16' W 007°14'.

Length 180 m; draft 9.5 m.

Type: Cargo ship. MMSI: 477685200.

Date/timePositionNaut miles runAvg speedWind from/ knotsBaromVisibWave heightAir tempDewpointWater temp
2017-Nov-18 00:29N 49°16' W 007°14'1313.5
2017-Nov-17 23:32N 49°19' W 006°54'113.8
2017-Nov-17 23:27N 49°20' W 006°53'12113.4
2017-Nov-17 14:23N 49°50' W 003°51'1614.3
2017-Nov-17 13:15N 49°54' W 003°27'415.3
2017-Nov-17 13:00N 49°55' W 003°22'1015.7
2017-Nov-17 12:24N 49°57' W 003°07'615.8
2017-Nov-17 12:00N 49°59' W 002°58'815.7
2017-Nov-17 11:28N 50°02' W 002°45'3513.9
2017-Nov-17 08:56N 50°11' W 001°52'1211.2
2017-Nov-17 07:50N 50°14' W 001°34'4912.2
2017-Nov-17 03:50N 50°26' W 000°20'514.9
2017-Nov-17 03:31N 50°28' W 000°13'714.9
2017-Nov-17 03:01N 50°30' W 000°01'815.2
2017-Nov-17 02:30N 50°31' E 000°10'815.2
2017-Nov-17 01:59N 50°33' E 000°23'715.0
2017-Nov-17 01:30N 50°36' E 000°33'714.6
2017-Nov-17 01:01N 50°39' E 000°43'1314.0
2017-Nov-17 00:06N 50°46' E 000°60'113.4
2017-Nov-17 00:00N 50°47' E 001°01'1212.6
2017-Nov-16 23:02N 50°54' E 001°17'011.7
2017-Nov-16 23:00N 50°54' E 001°18'611.6
2017-Nov-16 22:30N 50°59' E 001°23'612.1
2017-Nov-16 22:00N 51°03' E 001°30'612.8
2017-Nov-16 21:30N 51°08' E 001°37'713.2
2017-Nov-16 21:00N 51°13' E 001°45'713.9
2017-Nov-16 20:31N 51°18' E 001°51'714.6
2017-Nov-16 20:00N 51°24' E 001°58'612.1
2017-Nov-16 19:30N 51°23' E 002°07'612.9
2017-Nov-16 19:00N 51°20' E 002°16'714.4
2017-Nov-16 18:30N 51°22' E 002°27'713.4
2017-Nov-16 17:59N 51°22' E 002°39'612.2
2017-Nov-16 17:30N 51°22' E 002°48'713.5
2017-Nov-16 17:00N 51°23' E 002°59'713.2
2017-Nov-16 16:30N 51°24' E 003°09'714.4
2017-Nov-16 16:00N 51°24' E 003°21'714.5
2017-Nov-16 15:31N 51°26' E 003°32'611.0
2017-Nov-16 15:01N 51°26' E 003°41'612.5
2017-Nov-16 14:31N 51°21' E 003°47'612.5
2017-Nov-16 14:00N 51°23' E 003°57'3 6.7
2017-Nov-16 13:30N 51°24' E 004°02'5 9.3
2017-Nov-16 13:00N 51°23' E 004°09'3 6.5
2017-Nov-16 12:30N 51°22' E 004°14'2 4.7
2017-Nov-16 12:00N 51°21' E 004°17'0 0.0
2017-Nov-16 11:30N 51°21' E 004°17'0 0.0
2017-Nov-16 11:00N 51°21' E 004°17'0 0.7
2017-Nov-16 10:30N 51°21' E 004°18'3 5.1
2017-Nov-16 10:00N 51°18' E 004°19'1 2.8
2017-Nov-16 09:30N 51°17' E 004°20'0 0.0
2017-Nov-16 09:00N 51°17' E 004°20'0 0.0
2017-Nov-16 08:30N 51°17' E 004°20'0 0.0
2017-Nov-16 08:00N 51°17' E 004°20'0 0.0
2017-Nov-16 07:30N 51°17' E 004°20'0 0.0
2017-Nov-16 06:57N 51°17' E 004°20'0 0.0
2017-Nov-16 06:30N 51°17' E 004°20'0 0.0
2017-Nov-16 06:00N 51°17' E 004°20'0 0.0
2017-Nov-16 05:30N 51°17' E 004°20'0 0.0
2017-Nov-16 05:01N 51°17' E 004°20'0 0.0
2017-Nov-16 04:30N 51°17' E 004°20'0 0.0
2017-Nov-16 04:00N 51°17' E 004°20'0 0.0
2017-Nov-16 03:30N 51°17' E 004°20'0 0.0
2017-Nov-16 03:00N 51°17' E 004°20'0 0.0
2017-Nov-16 02:30N 51°17' E 004°20'0 0.0
2017-Nov-16 02:00N 51°17' E 004°20'0 0.0
2017-Nov-16 01:30N 51°17' E 004°20'0 0.0
2017-Nov-16 01:00N 51°17' E 004°20'0 0.0
2017-Nov-16 00:30N 51°17' E 004°20'0 0.0
2017-Nov-16 00:00N 51°17' E 004°20'0 0.0
2017-Nov-15 23:30N 51°17' E 004°20'0 0.0
2017-Nov-15 23:00N 51°17' E 004°20'0 0.0
2017-Nov-15 22:30N 51°17' E 004°20'0 0.0
2017-Nov-15 22:00N 51°17' E 004°20'0 0.0
2017-Nov-15 21:30N 51°17' E 004°20'0 0.0
2017-Nov-15 21:00N 51°17' E 004°20'0 0.0
2017-Nov-15 20:30N 51°17' E 004°20'0 0.0
2017-Nov-15 20:00N 51°17' E 004°20'0 0.0
2017-Nov-15 19:30N 51°17' E 004°20'0 0.0
2017-Nov-15 18:57N 51°17' E 004°20'0 0.0
2017-Nov-15 18:30N 51°17' E 004°20'0 0.0
2017-Nov-15 18:00N 51°17' E 004°20'0 0.0
2017-Nov-15 17:30N 51°17' E 004°20'0 0.0
2017-Nov-15 17:00N 51°17' E 004°20'0 0.0
2017-Nov-15 16:30N 51°17' E 004°20'0 0.0
2017-Nov-15 16:00N 51°17' E 004°20'0 0.0
2017-Nov-15 15:30N 51°17' E 004°20'0 0.0
2017-Nov-15 15:00N 51°17' E 004°20'0 0.0
2017-Nov-15 14:30N 51°17' E 004°20'0 0.0
2017-Nov-15 14:00N 51°17' E 004°20'0 0.0
2017-Nov-15 13:30N 51°17' E 004°20'0 0.0
2017-Nov-15 13:00N 51°17' E 004°20'0 0.0
2017-Nov-15 12:30N 51°17' E 004°20'0 0.0
2017-Nov-15 12:00N 51°17' E 004°20'0 0.0
2017-Nov-15 11:30N 51°17' E 004°20'0 0.0
2017-Nov-15 11:00N 51°17' E 004°20'0 0.0
2017-Nov-15 10:30N 51°17' E 004°20'0 0.0
2017-Nov-15 10:00N 51°17' E 004°20'0 0.0
2017-Nov-15 09:30N 51°17' E 004°20'0 0.0
2017-Nov-15 09:00N 51°17' E 004°20'0 0.0
2017-Nov-15 08:30N 51°17' E 004°20'0 0.0
2017-Nov-15 08:00N 51°17' E 004°20'0 0.0
2017-Nov-15 07:30N 51°17' E 004°20'0 0.0
2017-Nov-15 07:00N 51°17' E 004°20'0 0.0
2017-Nov-15 06:30N 51°17' E 004°20'0 0.0
2017-Nov-15 06:00N 51°17' E 004°20'0 0.0
2017-Nov-15 05:30N 51°17' E 004°20'0 0.0
2017-Nov-15 05:00N 51°17' E 004°20'0 0.0
2017-Nov-15 04:30N 51°17' E 004°20'0 0.0
2017-Nov-15 04:00N 51°17' E 004°20'0 0.0
2017-Nov-15 03:30N 51°17' E 004°20'0 0.0
2017-Nov-15 03:00N 51°17' E 004°20'0 0.0
2017-Nov-15 02:30N 51°17' E 004°20'0 0.0
2017-Nov-15 02:00N 51°17' E 004°20'0 0.0
2017-Nov-15 01:30N 51°17' E 004°20'0 0.0
2017-Nov-15 01:00N 51°17' E 004°20'0 0.0
2017-Nov-15 00:30N 51°17' E 004°20'0 0.0
2017-Nov-15 00:00N 51°17' E 004°20'0 0.0
2017-Nov-14 23:30N 51°17' E 004°20'0 0.0
2017-Nov-14 23:00N 51°17' E 004°20'0 0.0
2017-Nov-14 22:30N 51°17' E 004°20'0 0.0
2017-Nov-14 22:00N 51°17' E 004°20'0 0.0
2017-Nov-14 21:30N 51°17' E 004°20'0 0.0
2017-Nov-14 21:00N 51°17' E 004°20'0 0.0
2017-Nov-14 20:30N 51°17' E 004°20'0 0.0
2017-Nov-14 20:00N 51°17' E 004°20'0 0.0
2017-Nov-14 19:30N 51°17' E 004°20'0 0.0
2017-Nov-14 19:00N 51°17' E 004°20'0 0.0
2017-Nov-14 18:30N 51°17' E 004°20'0 0.0
2017-Nov-14 18:00N 51°17' E 004°20'0 0.0
2017-Nov-14 17:30N 51°17' E 004°20'0 0.0
2017-Nov-14 17:00N 51°17' E 004°20'0 0.0
2017-Nov-14 16:30N 51°17' E 004°20'0 0.0
2017-Nov-14 16:00N 51°17' E 004°20'0 0.0
2017-Nov-14 15:30N 51°17' E 004°20'0 0.0
2017-Nov-14 15:00N 51°17' E 004°20'0 0.0
2017-Nov-14 14:30N 51°17' E 004°20'0 0.0
2017-Nov-14 13:57N 51°17' E 004°20'0 0.0
2017-Nov-14 13:30N 51°17' E 004°20'0 0.0
2017-Nov-14 13:00N 51°17' E 004°20'0 0.0
2017-Nov-14 12:30N 51°17' E 004°20'0 0.0
2017-Nov-14 12:00N 51°17' E 004°20'0 0.0
2017-Nov-14 11:30N 51°17' E 004°20'0 0.0
2017-Nov-14 11:00N 51°17' E 004°20'0 0.0
2017-Nov-14 10:30N 51°17' E 004°20'0 0.0
2017-Nov-14 10:00N 51°17' E 004°20'0 0.0
2017-Nov-14 09:30N 51°17' E 004°20'0 0.0
2017-Nov-14 09:00N 51°17' E 004°20'0 0.0
2017-Nov-14 08:30N 51°17' E 004°20'0 0.0
2017-Nov-14 08:00N 51°17' E 004°20'0 0.0
2017-Nov-14 07:30N 51°17' E 004°20'0 0.0
2017-Nov-14 07:00N 51°17' E 004°20'0 0.0
2017-Nov-14 06:30N 51°17' E 004°20'0 0.0
2017-Nov-14 06:00N 51°17' E 004°20'0 0.0
2017-Nov-14 05:30N 51°17' E 004°20'0 0.0
2017-Nov-14 05:00N 51°17' E 004°20'0 0.0
2017-Nov-14 04:30N 51°17' E 004°20'0 0.0
2017-Nov-14 04:00N 51°17' E 004°20'0 0.0
2017-Nov-14 03:30N 51°17' E 004°20'0 0.0
2017-Nov-14 03:00N 51°17' E 004°20'0 0.0
2017-Nov-14 02:30N 51°17' E 004°20'0 0.0
2017-Nov-14 01:57N 51°17' E 004°20'0 0.0
2017-Nov-14 01:30N 51°17' E 004°20'0 0.0
2017-Nov-14 01:00N 51°17' E 004°20'0 0.0
2017-Nov-14 00:30N 51°17' E 004°20'0 0.0
2017-Nov-14 00:00N 51°17' E 004°20'0 0.0
2017-Nov-13 23:30N 51°17' E 004°20'0 0.0
2017-Nov-13 23:00N 51°17' E 004°20'0 0.0
2017-Nov-13 22:30N 51°17' E 004°20'0 0.0
2017-Nov-13 22:00N 51°17' E 004°20'0 0.0
2017-Nov-13 02:00N 51°17' E 004°20'0 0.0
2017-Nov-13 01:30N 51°17' E 004°20'0 0.0
2017-Nov-13 01:00N 51°17' E 004°20'0 0.0
2017-Nov-13 00:30N 51°17' E 004°20'0 0.0
2017-Nov-13 00:00N 51°17' E 004°20'0 0.0
2017-Nov-12 23:30N 51°17' E 004°20'0 0.0
2017-Nov-12 23:00N 51°17' E 004°20'0 0.0
2017-Nov-12 22:30N 51°17' E 004°20'0 0.0
2017-Nov-12 21:57N 51°17' E 004°20'0 0.0
2017-Nov-12 21:30N 51°17' E 004°20'0 0.0
2017-Nov-12 21:00N 51°17' E 004°20'0 0.0
2017-Nov-12 20:27N 51°17' E 004°20'0 0.0
2017-Nov-12 20:00N 51°17' E 004°20'0 0.0
2017-Nov-12 19:30N 51°17' E 004°20'0 0.0
2017-Nov-12 19:00N 51°17' E 004°20'0 0.0
2017-Nov-12 18:30N 51°17' E 004°20'0 0.0
2017-Nov-12 18:00N 51°17' E 004°20'0 0.0
2017-Nov-12 17:30N 51°17' E 004°20'0 0.0
2017-Nov-12 17:00N 51°17' E 004°20'0 0.0
2017-Nov-12 16:30N 51°17' E 004°20'0 0.0
2017-Nov-12 16:00N 51°17' E 004°20'0 0.0
2017-Nov-12 15:30N 51°17' E 004°20'0 0.0
2017-Nov-12 15:00N 51°17' E 004°20'0 0.0
2017-Nov-12 14:30N 51°17' E 004°20'0 0.0
2017-Nov-12 14:00N 51°17' E 004°20'0 0.0
2017-Nov-12 13:30N 51°17' E 004°20'0 0.0
2017-Nov-12 13:00N 51°17' E 004°20'0 0.0
2017-Nov-12 12:30N 51°17' E 004°20'0 0.0
2017-Nov-12 12:00N 51°17' E 004°20'0 0.0
2017-Nov-12 11:30N 51°17' E 004°20'0 0.0
2017-Nov-12 11:00N 51°17' E 004°20'0 0.0
2017-Nov-12 10:30N 51°17' E 004°20'0 0.0
2017-Nov-12 10:00N 51°17' E 004°20'0 0.0
2017-Nov-12 09:30N 51°17' E 004°20'0 0.0
2017-Nov-12 09:00N 51°17' E 004°20'0 0.0
2017-Nov-12 08:30N 51°17' E 004°20'0 0.0
2017-Nov-12 08:00N 51°17' E 004°20'0 0.0
2017-Nov-12 07:30N 51°17' E 004°20'0 0.0
2017-Nov-12 07:00N 51°17' E 004°20'0 0.0
2017-Nov-12 06:30N 51°17' E 004°20'0 0.0
2017-Nov-12 06:00N 51°17' E 004°20'0 0.0
2017-Nov-12 05:30N 51°17' E 004°20'0 0.0
2017-Nov-12 05:00N 51°17' E 004°20'0 0.0
2017-Nov-12 04:30N 51°17' E 004°20'0 0.0
2017-Nov-12 04:00N 51°17' E 004°20'0 0.0
2017-Nov-12 03:30N 51°17' E 004°20'0 0.0
2017-Nov-12 03:00N 51°17' E 004°20'0 0.0
2017-Nov-12 02:30N 51°17' E 004°20'0 0.0
2017-Nov-12 02:00N 51°17' E 004°20'0 0.0
2017-Nov-12 01:30N 51°17' E 004°20'0 0.0
2017-Nov-12 01:00N 51°17' E 004°20'0 0.0
2017-Nov-12 00:30N 51°17' E 004°20'0 0.0
2017-Nov-12 00:00N 51°17' E 004°20'0 0.0
2017-Nov-11 23:30N 51°17' E 004°20'0 0.0
2017-Nov-11 23:00N 51°17' E 004°20'0 0.0
2017-Nov-11 22:30N 51°17' E 004°20'0 0.0
2017-Nov-11 22:00N 51°17' E 004°20'0 0.0
2017-Nov-11 21:30N 51°17' E 004°20'0 0.0
2017-Nov-11 21:00N 51°17' E 004°20'0 0.0
2017-Nov-11 20:30N 51°17' E 004°20'0 0.0
2017-Nov-11 20:00N 51°17' E 004°20'0 0.0
2017-Nov-11 19:30N 51°17' E 004°20'0 0.0
2017-Nov-11 19:00N 51°17' E 004°20'0 0.0
2017-Nov-11 18:30N 51°17' E 004°20'0 0.0
2017-Nov-11 18:00N 51°17' E 004°20'0 0.0
2017-Nov-11 17:30N 51°17' E 004°20'0 0.0
2017-Nov-11 17:00N 51°17' E 004°20'0 0.0
2017-Nov-11 16:30N 51°17' E 004°20'0 0.0
2017-Nov-11 16:00N 51°17' E 004°20'0 0.0
2017-Nov-11 15:30N 51°17' E 004°20'0 0.0
2017-Nov-11 15:00N 51°17' E 004°20'0 0.0
2017-Nov-11 14:30N 51°17' E 004°20'0 0.0
2017-Nov-11 14:00N 51°17' E 004°20'0 0.0
2017-Nov-11 13:30N 51°17' E 004°20'0 0.0
2017-Nov-11 13:00N 51°17' E 004°20'0 0.0
2017-Nov-11 12:30N 51°17' E 004°20'0 0.0
2017-Nov-11 12:00N 51°17' E 004°20'0 0.0
2017-Nov-11 11:30N 51°17' E 004°20'0 0.0
2017-Nov-11 11:00N 51°17' E 004°20'0 0.0
2017-Nov-11 10:30N 51°17' E 004°20'0 0.0
2017-Nov-11 10:00N 51°17' E 004°20'0 0.0
2017-Nov-11 09:30N 51°17' E 004°20'0 0.0
2017-Nov-11 09:00N 51°17' E 004°20'0 0.0
2017-Nov-11 08:30N 51°17' E 004°20'0 0.0
2017-Nov-11 08:00N 51°17' E 004°20'0 0.0
2017-Nov-11 07:30N 51°17' E 004°20'0 0.0
2017-Nov-11 07:00N 51°17' E 004°20'0 0.0
2017-Nov-11 06:30N 51°17' E 004°20'0 0.0
2017-Nov-11 06:00N 51°17' E 004°20'0 0.0
2017-Nov-11 05:30N 51°17' E 004°20'0 0.0
2017-Nov-11 05:00N 51°17' E 004°20'0 0.0
2017-Nov-11 04:30N 51°17' E 004°20'0 0.0
2017-Nov-11 04:00N 51°17' E 004°20'0 0.0
2017-Nov-11 03:30N 51°17' E 004°20'0 0.0
2017-Nov-11 03:00N 51°17' E 004°20'0 0.0
2017-Nov-11 02:24N 51°17' E 004°20'0 0.0
2017-Nov-11 02:00N 51°17' E 004°20'0 0.0
2017-Nov-11 01:30N 51°17' E 004°20'0 0.0
2017-Nov-11 01:00N 51°17' E 004°20'0 0.0
2017-Nov-11 00:30N 51°17' E 004°20'0 0.0
2017-Nov-11 00:00N 51°17' E 004°20'0 0.0
2017-Nov-10 23:30N 51°17' E 004°20'0 0.0
2017-Nov-10 22:57N 51°17' E 004°20'0 0.0
2017-Nov-10 22:30N 51°17' E 004°20'0 0.0
2017-Nov-10 22:00N 51°17' E 004°20'0 0.0
2017-Nov-10 21:27N 51°17' E 004°20'0 0.0
2017-Nov-10 21:00N 51°17' E 004°20'0 0.0
2017-Nov-10 20:30N 51°17' E 004°20'0 0.0
2017-Nov-10 20:00N 51°17' E 004°20'0 0.0
2017-Nov-10 19:30N 51°17' E 004°20'0 0.0
2017-Nov-10 19:00N 51°17' E 004°20'0 0.0
2017-Nov-10 18:30N 51°17' E 004°20'0 0.0
2017-Nov-10 18:00N 51°17' E 004°20'0 0.0
2017-Nov-10 17:30N 51°17' E 004°20'0 0.0
2017-Nov-10 17:00N 51°17' E 004°20'0 0.0
2017-Nov-10 16:30N 51°17' E 004°20'0 0.0
2017-Nov-10 16:00N 51°17' E 004°20'0 0.0
2017-Nov-10 15:30N 51°17' E 004°20'0 0.0
2017-Nov-10 15:00N 51°17' E 004°20'0 0.0
2017-Nov-10 14:30N 51°17' E 004°20'0 0.0
2017-Nov-10 14:00N 51°17' E 004°20'0 0.0
2017-Nov-10 13:30N 51°17' E 004°20'0 0.0
2017-Nov-10 13:00N 51°17' E 004°20'0 0.0
2017-Nov-10 12:30N 51°17' E 004°20'0 0.0
2017-Nov-10 12:00N 51°17' E 004°20'0 0.0
2017-Nov-10 11:30N 51°17' E 004°20'0 0.0
2017-Nov-10 11:00N 51°17' E 004°20'0 0.0
2017-Nov-10 10:30N 51°17' E 004°20'0 0.0
2017-Nov-10 10:00N 51°17' E 004°20'0 0.0
2017-Nov-10 09:30N 51°17' E 004°20'0 0.0
2017-Nov-10 09:00N 51°17' E 004°20'0 0.0
2017-Nov-10 08:30N 51°17' E 004°20'0 0.0
2017-Nov-10 08:00N 51°17' E 004°20'0 0.0
2017-Nov-10 07:30N 51°17' E 004°20'0 0.0
2017-Nov-10 06:57N 51°17' E 004°20'0 0.0
2017-Nov-10 06:30N 51°17' E 004°20'0 0.0
2017-Nov-10 06:00N 51°17' E 004°20'0 0.0
2017-Nov-10 05:30N 51°17' E 004°20'0 0.0
2017-Nov-10 05:00N 51°17' E 004°20'0 0.0
2017-Nov-10 04:30N 51°17' E 004°20'0 0.0
2017-Nov-10 04:00N 51°17' E 004°20'0 0.0
2017-Nov-10 03:30N 51°17' E 004°20'0 0.0
2017-Nov-10 03:00N 51°17' E 004°20'0 0.0
2017-Nov-10 02:30N 51°17' E 004°20'0 0.0
2017-Nov-10 02:00N 51°17' E 004°20'0 0.0
2017-Nov-10 01:30N 51°17' E 004°20'0 0.0
2017-Nov-10 01:00N 51°17' E 004°20'0 0.0
2017-Nov-10 00:30N 51°17' E 004°20'0 0.0
2017-Nov-10 00:00N 51°17' E 004°20'0 0.0
2017-Nov-09 23:27N 51°17' E 004°20'0 0.0
2017-Nov-09 22:57N 51°17' E 004°20'0 0.0
2017-Nov-09 22:30N 51°17' E 004°20'0 0.0
2017-Nov-09 22:00N 51°17' E 004°20'0 0.0
2017-Nov-09 21:30N 51°17' E 004°20'0 0.0
2017-Nov-09 21:00N 51°17' E 004°20'0 0.0
2017-Nov-09 20:30N 51°17' E 004°20'0 0.0
2017-Nov-09 19:54N 51°17' E 004°20'0 0.0
2017-Nov-09 19:30N 51°17' E 004°20'0 0.0
2017-Nov-09 18:57N 51°17' E 004°20'0 0.0
2017-Nov-09 18:30N 51°17' E 004°20'0 0.0
2017-Nov-09 18:00N 51°17' E 004°20'0 0.0
2017-Nov-09 17:30N 51°17' E 004°20'0 0.0
2017-Nov-09 17:00N 51°17' E 004°20'0 0.0
2017-Nov-09 16:30N 51°17' E 004°20'0 0.0
2017-Nov-09 16:00N 51°17' E 004°20'0 0.0
2017-Nov-09 15:30N 51°17' E 004°20'0 0.0
2017-Nov-09 15:00N 51°17' E 004°20'0 0.0
2017-Nov-09 14:30N 51°17' E 004°20'0 0.0
2017-Nov-09 14:00N 51°17' E 004°20'0 0.0
2017-Nov-09 13:30N 51°17' E 004°20'0 0.0
2017-Nov-09 12:54N 51°17' E 004°20'0 0.0
2017-Nov-09 12:30N 51°17' E 004°20'0 0.0
2017-Nov-09 12:00N 51°17' E 004°20'0 0.0
2017-Nov-09 11:30N 51°17' E 004°20'0 0.0
2017-Nov-09 11:00N 51°17' E 004°20'0 0.0
2017-Nov-09 10:30N 51°17' E 004°20'0 0.0
2017-Nov-09 10:00N 51°17' E 004°20'0 0.0
2017-Nov-09 09:30N 51°17' E 004°20'0 0.0
2017-Nov-09 09:00N 51°17' E 004°20'0 0.0
2017-Nov-09 08:30N 51°17' E 004°20'0 0.0
2017-Nov-09 08:00N 51°17' E 004°20'0 0.0
2017-Nov-09 07:30N 51°17' E 004°20'0 0.0
2017-Nov-09 07:00N 51°17' E 004°20'0 0.0
2017-Nov-09 06:30N 51°17' E 004°20'0 0.0
2017-Nov-09 06:00N 51°17' E 004°20'0 0.0
2017-Nov-09 05:30N 51°17' E 004°20'0 0.0
2017-Nov-09 05:00N 51°17' E 004°20'0 0.0
2017-Nov-09 04:30N 51°17' E 004°20'0 0.0
2017-Nov-09 03:57N 51°17' E 004°20'0 0.0
2017-Nov-09 03:30N 51°17' E 004°20'0 0.0
2017-Nov-09 03:00N 51°17' E 004°20'0 0.0
2017-Nov-09 02:30N 51°17' E 004°20'0 0.0
2017-Nov-09 02:00N 51°17' E 004°20'0 0.0
2017-Nov-09 01:30N 51°17' E 004°20'0 0.0
2017-Nov-09 01:00N 51°17' E 004°20'0 0.0
2017-Nov-09 00:30N 51°17' E 004°20'0 0.0
2017-Nov-09 00:00N 51°17' E 004°20'0 0.0
2017-Nov-08 23:27N 51°17' E 004°20'0 0.0
2017-Nov-08 23:00N 51°17' E 004°20'0 0.0
2017-Nov-08 22:30N 51°17' E 004°20'0 0.0
2017-Nov-08 22:00N 51°17' E 004°20'0 0.0
2017-Nov-08 21:30N 51°17' E 004°20'0 0.0
2017-Nov-08 20:57N 51°17' E 004°20'0 0.0
2017-Nov-08 20:30N 51°17' E 004°20'0 0.0
2017-Nov-08 20:00N 51°17' E 004°20'0 0.0
2017-Nov-08 19:30N 51°17' E 004°20'0 0.0
2017-Nov-08 18:57N 51°17' E 004°20'0 0.0
2017-Nov-08 18:30N 51°17' E 004°20'0 0.0
2017-Nov-08 18:00N 51°17' E 004°20'0 0.0
2017-Nov-08 17:30N 51°17' E 004°20'0 0.0
2017-Nov-08 17:00N 51°17' E 004°20'0 0.0
2017-Nov-08 16:30N 51°17' E 004°20'0 0.0
2017-Nov-08 16:00N 51°17' E 004°20'0 0.0
2017-Nov-08 15:30N 51°17' E 004°20'0 0.0
2017-Nov-08 14:57N 51°17' E 004°20'0 0.0
2017-Nov-08 14:27N 51°17' E 004°20'0 0.0
2017-Nov-08 14:00N 51°17' E 004°20'0 0.0
2017-Nov-08 13:30N 51°17' E 004°20'0 0.0
2017-Nov-08 13:00N 51°17' E 004°20'0 0.0
2017-Nov-08 12:30N 51°17' E 004°20'0 0.0
2017-Nov-08 12:00N 51°17' E 004°20'0 0.0
2017-Nov-08 11:30N 51°17' E 004°20'0 0.0
2017-Nov-08 11:00N 51°17' E 004°20'0 0.0
2017-Nov-08 10:30N 51°17' E 004°20'0 0.0
2017-Nov-08 10:00N 51°17' E 004°20'0 0.0
2017-Nov-08 09:30N 51°17' E 004°20'0 0.0
2017-Nov-08 09:00N 51°17' E 004°20'0 0.0
2017-Nov-08 08:30N 51°17' E 004°20'0 0.0
2017-Nov-08 08:00N 51°17' E 004°20'0 0.0
2017-Nov-08 07:30N 51°17' E 004°20'0 0.0
2017-Nov-08 07:00N 51°17' E 004°20'0 0.0
2017-Nov-08 06:29N 51°17' E 004°20'0 0.0
2017-Nov-08 06:00N 51°17' E 004°20'0 0.0
2017-Nov-08 05:29N 51°17' E 004°20'0 0.0
2017-Nov-08 05:00N 51°17' E 004°20'0 0.0
2017-Nov-08 04:30N 51°17' E 004°20'0 0.0
2017-Nov-08 03:59N 51°17' E 004°20'0 0.0
2017-Nov-08 03:29N 51°17' E 004°20'0 0.0
2017-Nov-08 03:00N 51°17' E 004°20'0 0.0
2017-Nov-08 02:29N 51°17' E 004°20'0 0.0
2017-Nov-08 02:00N 51°17' E 004°20'0 0.0
2017-Nov-08 01:29N 51°17' E 004°20'0 0.0
2017-Nov-08 01:00N 51°17' E 004°20'  
Track history (hours):
 
Tides and Currents Weather Stations Pressure Air Temp Water Temp Dewpoint Dewpoint Depression Visibility Wind Speed Wind Dir Waves Ship Positions

Cape Moreton

Last reported at 2017-Nov-18 00:29 UTC. Time now 2017-Nov-18 01:11 UTC.
Position N 49°16' W 007°14'.

Length 180 m; draft 9.5 m.

Type: Cargo ship. MMSI: 477685200.

Date/timePositionNaut miles runAvg speedWind from/ knotsBaromVisibWave heightAir tempDewpointWater temp
2017-Nov-18 00:29N 49°16' W 007°14'1313.5
2017-Nov-17 23:32N 49°19' W 006°54'113.8
2017-Nov-17 23:27N 49°20' W 006°53'12113.4
2017-Nov-17 14:23N 49°50' W 003°51'1614.3
2017-Nov-17 13:15N 49°54' W 003°27'415.3
2017-Nov-17 13:00N 49°55' W 003°22'1015.7
2017-Nov-17 12:24N 49°57' W 003°07'615.8
2017-Nov-17 12:00N 49°59' W 002°58'815.7
2017-Nov-17 11:28N 50°02' W 002°45'3513.9
2017-Nov-17 08:56N 50°11' W 001°52'1211.2
2017-Nov-17 07:50N 50°14' W 001°34'4912.2
2017-Nov-17 03:50N 50°26' W 000°20'514.9
2017-Nov-17 03:31N 50°28' W 000°13'714.9
2017-Nov-17 03:01N 50°30' W 000°01'815.2
2017-Nov-17 02:30N 50°31' E 000°10'815.2
2017-Nov-17 01:59N 50°33' E 000°23'715.0
2017-Nov-17 01:30N 50°36' E 000°33'714.6
2017-Nov-17 01:01N 50°39' E 000°43'1314.0
2017-Nov-17 00:06N 50°46' E 000°60'113.4
2017-Nov-17 00:00N 50°47' E 001°01'1212.6
2017-Nov-16 23:02N 50°54' E 001°17'011.7
2017-Nov-16 23:00N 50°54' E 001°18'611.6
2017-Nov-16 22:30N 50°59' E 001°23'612.1
2017-Nov-16 22:00N 51°03' E 001°30'612.8
2017-Nov-16 21:30N 51°08' E 001°37'713.2
2017-Nov-16 21:00N 51°13' E 001°45'713.9
2017-Nov-16 20:31N 51°18' E 001°51'714.6
2017-Nov-16 20:00N 51°24' E 001°58'612.1
2017-Nov-16 19:30N 51°23' E 002°07'612.9
2017-Nov-16 19:00N 51°20' E 002°16'714.4
2017-Nov-16 18:30N 51°22' E 002°27'713.4
2017-Nov-16 17:59N 51°22' E 002°39'612.2
2017-Nov-16 17:30N 51°22' E 002°48'713.5
2017-Nov-16 17:00N 51°23' E 002°59'713.2
2017-Nov-16 16:30N 51°24' E 003°09'714.4
2017-Nov-16 16:00N 51°24' E 003°21'714.5
2017-Nov-16 15:31N 51°26' E 003°32'611.0
2017-Nov-16 15:01N 51°26' E 003°41'612.5
2017-Nov-16 14:31N 51°21' E 003°47'612.5
2017-Nov-16 14:00N 51°23' E 003°57'3 6.7
2017-Nov-16 13:30N 51°24' E 004°02'5 9.3
2017-Nov-16 13:00N 51°23' E 004°09'3 6.5
2017-Nov-16 12:30N 51°22' E 004°14'2 4.7
2017-Nov-16 12:00N 51°21' E 004°17'0 0.0
2017-Nov-16 11:30N 51°21' E 004°17'0 0.0
2017-Nov-16 11:00N 51°21' E 004°17'0 0.7
2017-Nov-16 10:30N 51°21' E 004°18'3 5.1
2017-Nov-16 10:00N 51°18' E 004°19'1 2.8
2017-Nov-16 09:30N 51°17' E 004°20'0 0.0
2017-Nov-16 09:00N 51°17' E 004°20'0 0.0
2017-Nov-16 08:30N 51°17' E 004°20'0 0.0
2017-Nov-16 08:00N 51°17' E 004°20'0 0.0
2017-Nov-16 07:30N 51°17' E 004°20'0 0.0
2017-Nov-16 06:57N 51°17' E 004°20'0 0.0
2017-Nov-16 06:30N 51°17' E 004°20'0 0.0
2017-Nov-16 06:00N 51°17' E 004°20'0 0.0
2017-Nov-16 05:30N 51°17' E 004°20'0 0.0
2017-Nov-16 05:01N 51°17' E 004°20'0 0.0
2017-Nov-16 04:30N 51°17' E 004°20'0 0.0
2017-Nov-16 04:00N 51°17' E 004°20'0 0.0
2017-Nov-16 03:30N 51°17' E 004°20'0 0.0
2017-Nov-16 03:00N 51°17' E 004°20'0 0.0
2017-Nov-16 02:30N 51°17' E 004°20'0 0.0
2017-Nov-16 02:00N 51°17' E 004°20'0 0.0
2017-Nov-16 01:30N 51°17' E 004°20'0 0.0
2017-Nov-16 01:00N 51°17' E 004°20'0 0.0
2017-Nov-16 00:30N 51°17' E 004°20'0 0.0
2017-Nov-16 00:00N 51°17' E 004°20'0 0.0
2017-Nov-15 23:30N 51°17' E 004°20'0 0.0
2017-Nov-15 23:00N 51°17' E 004°20'0 0.0
2017-Nov-15 22:30N 51°17' E 004°20'0 0.0
2017-Nov-15 22:00N 51°17' E 004°20'0 0.0
2017-Nov-15 21:30N 51°17' E 004°20'0 0.0
2017-Nov-15 21:00N 51°17' E 004°20'0 0.0
2017-Nov-15 20:30N 51°17' E 004°20'0 0.0
2017-Nov-15 20:00N 51°17' E 004°20'0 0.0
2017-Nov-15 19:30N 51°17' E 004°20'0 0.0
2017-Nov-15 18:57N 51°17' E 004°20'0 0.0
2017-Nov-15 18:30N 51°17' E 004°20'0 0.0
2017-Nov-15 18:00N 51°17' E 004°20'0 0.0
2017-Nov-15 17:30N 51°17' E 004°20'0 0.0
2017-Nov-15 17:00N 51°17' E 004°20'0 0.0
2017-Nov-15 16:30N 51°17' E 004°20'0 0.0
2017-Nov-15 16:00N 51°17' E 004°20'0 0.0
2017-Nov-15 15:30N 51°17' E 004°20'0 0.0
2017-Nov-15 15:00N 51°17' E 004°20'0 0.0
2017-Nov-15 14:30N 51°17' E 004°20'0 0.0
2017-Nov-15 14:00N 51°17' E 004°20'0 0.0
2017-Nov-15 13:30N 51°17' E 004°20'0 0.0
2017-Nov-15 13:00N 51°17' E 004°20'0 0.0
2017-Nov-15 12:30N 51°17' E 004°20'0 0.0
2017-Nov-15 12:00N 51°17' E 004°20'0 0.0
2017-Nov-15 11:30N 51°17' E 004°20'0 0.0
2017-Nov-15 11:00N 51°17' E 004°20'0 0.0
2017-Nov-15 10:30N 51°17' E 004°20'0 0.0
2017-Nov-15 10:00N 51°17' E 004°20'0 0.0
2017-Nov-15 09:30N 51°17' E 004°20'0 0.0
2017-Nov-15 09:00N 51°17' E 004°20'0 0.0
2017-Nov-15 08:30N 51°17' E 004°20'0 0.0
2017-Nov-15 08:00N 51°17' E 004°20'0 0.0
2017-Nov-15 07:30N 51°17' E 004°20'0 0.0
2017-Nov-15 07:00N 51°17' E 004°20'0 0.0
2017-Nov-15 06:30N 51°17' E 004°20'0 0.0
2017-Nov-15 06:00N 51°17' E 004°20'0 0.0
2017-Nov-15 05:30N 51°17' E 004°20'0 0.0
2017-Nov-15 05:00N 51°17' E 004°20'0 0.0
2017-Nov-15 04:30N 51°17' E 004°20'0 0.0
2017-Nov-15 04:00N 51°17' E 004°20'0 0.0
2017-Nov-15 03:30N 51°17' E 004°20'0 0.0
2017-Nov-15 03:00N 51°17' E 004°20'0 0.0
2017-Nov-15 02:30N 51°17' E 004°20'0 0.0
2017-Nov-15 02:00N 51°17' E 004°20'0 0.0
2017-Nov-15 01:30N 51°17' E 004°20'0 0.0
2017-Nov-15 01:00N 51°17' E 004°20'0 0.0
2017-Nov-15 00:30N 51°17' E 004°20'0 0.0
2017-Nov-15 00:00N 51°17' E 004°20'0 0.0
2017-Nov-14 23:30N 51°17' E 004°20'0 0.0
2017-Nov-14 23:00N 51°17' E 004°20'0 0.0
2017-Nov-14 22:30N 51°17' E 004°20'0 0.0
2017-Nov-14 22:00N 51°17' E 004°20'0 0.0
2017-Nov-14 21:30N 51°17' E 004°20'0 0.0
2017-Nov-14 21:00N 51°17' E 004°20'0 0.0
2017-Nov-14 20:30N 51°17' E 004°20'0 0.0
2017-Nov-14 20:00N 51°17' E 004°20'0 0.0
2017-Nov-14 19:30N 51°17' E 004°20'0 0.0
2017-Nov-14 19:00N 51°17' E 004°20'0 0.0
2017-Nov-14 18:30N 51°17' E 004°20'0 0.0
2017-Nov-14 18:00N 51°17' E 004°20'0 0.0
2017-Nov-14 17:30N 51°17' E 004°20'0 0.0
2017-Nov-14 17:00N 51°17' E 004°20'0 0.0
2017-Nov-14 16:30N 51°17' E 004°20'0 0.0
2017-Nov-14 16:00N 51°17' E 004°20'0 0.0
2017-Nov-14 15:30N 51°17' E 004°20'0 0.0
2017-Nov-14 15:00N 51°17' E 004°20'0 0.0
2017-Nov-14 14:30N 51°17' E 004°20'0 0.0
2017-Nov-14 13:57N 51°17' E 004°20'0 0.0
2017-Nov-14 13:30N 51°17' E 004°20'0 0.0
2017-Nov-14 13:00N 51°17' E 004°20'0 0.0
2017-Nov-14 12:30N 51°17' E 004°20'0 0.0
2017-Nov-14 12:00N 51°17' E 004°20'0 0.0
2017-Nov-14 11:30N 51°17' E 004°20'0 0.0
2017-Nov-14 11:00N 51°17' E 004°20'0 0.0
2017-Nov-14 10:30N 51°17' E 004°20'0 0.0
2017-Nov-14 10:00N 51°17' E 004°20'0 0.0
2017-Nov-14 09:30N 51°17' E 004°20'0 0.0
2017-Nov-14 09:00N 51°17' E 004°20'0 0.0
2017-Nov-14 08:30N 51°17' E 004°20'0 0.0
2017-Nov-14 08:00N 51°17' E 004°20'0 0.0
2017-Nov-14 07:30N 51°17' E 004°20'0 0.0
2017-Nov-14 07:00N 51°17' E 004°20'0 0.0
2017-Nov-14 06:30N 51°17' E 004°20'0 0.0
2017-Nov-14 06:00N 51°17' E 004°20'0 0.0
2017-Nov-14 05:30N 51°17' E 004°20'0 0.0
2017-Nov-14 05:00N 51°17' E 004°20'0 0.0
2017-Nov-14 04:30N 51°17' E 004°20'0 0.0
2017-Nov-14 04:00N 51°17' E 004°20'0 0.0
2017-Nov-14 03:30N 51°17' E 004°20'0 0.0
2017-Nov-14 03:00N 51°17' E 004°20'0 0.0
2017-Nov-14 02:30N 51°17' E 004°20'0 0.0
2017-Nov-14 01:57N 51°17' E 004°20'0 0.0
2017-Nov-14 01:30N 51°17' E 004°20'0 0.0
2017-Nov-14 01:00N 51°17' E 004°20'0 0.0
2017-Nov-14 00:30N 51°17' E 004°20'0 0.0
2017-Nov-14 00:00N 51°17' E 004°20'0 0.0
2017-Nov-13 23:30N 51°17' E 004°20'0 0.0
2017-Nov-13 23:00N 51°17' E 004°20'0 0.0
2017-Nov-13 22:30N 51°17' E 004°20'0 0.0
2017-Nov-13 22:00N 51°17' E 004°20'0 0.0
2017-Nov-13 02:00N 51°17' E 004°20'0 0.0
2017-Nov-13 01:30N 51°17' E 004°20'0 0.0
2017-Nov-13 01:00N 51°17' E 004°20'0 0.0
2017-Nov-13 00:30N 51°17' E 004°20'0 0.0
2017-Nov-13 00:00N 51°17' E 004°20'0 0.0
2017-Nov-12 23:30N 51°17' E 004°20'0 0.0
2017-Nov-12 23:00N 51°17' E 004°20'0 0.0
2017-Nov-12 22:30N 51°17' E 004°20'0 0.0
2017-Nov-12 21:57N 51°17' E 004°20'0 0.0
2017-Nov-12 21:30N 51°17' E 004°20'0 0.0
2017-Nov-12 21:00N 51°17' E 004°20'0 0.0
2017-Nov-12 20:27N 51°17' E 004°20'0 0.0
2017-Nov-12 20:00N 51°17' E 004°20'0 0.0
2017-Nov-12 19:30N 51°17' E 004°20'0 0.0
2017-Nov-12 19:00N 51°17' E 004°20'0 0.0
2017-Nov-12 18:30N 51°17' E 004°20'0 0.0
2017-Nov-12 18:00N 51°17' E 004°20'0 0.0
2017-Nov-12 17:30N 51°17' E 004°20'0 0.0
2017-Nov-12 17:00N 51°17' E 004°20'0 0.0
2017-Nov-12 16:30N 51°17' E 004°20'0 0.0
2017-Nov-12 16:00N 51°17' E 004°20'0 0.0
2017-Nov-12 15:30N 51°17' E 004°20'0 0.0
2017-Nov-12 15:00N 51°17' E 004°20'0 0.0
2017-Nov-12 14:30N 51°17' E 004°20'0 0.0
2017-Nov-12 14:00N 51°17' E 004°20'0 0.0
2017-Nov-12 13:30N 51°17' E 004°20'0 0.0
2017-Nov-12 13:00N 51°17' E 004°20'0 0.0
2017-Nov-12 12:30N 51°17' E 004°20'0 0.0
2017-Nov-12 12:00N 51°17' E 004°20'0 0.0
2017-Nov-12 11:30N 51°17' E 004°20'0 0.0
2017-Nov-12 11:00N 51°17' E 004°20'0 0.0
2017-Nov-12 10:30N 51°17' E 004°20'0 0.0
2017-Nov-12 10:00N 51°17' E 004°20'0 0.0
2017-Nov-12 09:30N 51°17' E 004°20'0 0.0
2017-Nov-12 09:00N 51°17' E 004°20'0 0.0
2017-Nov-12 08:30N 51°17' E 004°20'0 0.0
2017-Nov-12 08:00N 51°17' E 004°20'0 0.0
2017-Nov-12 07:30N 51°17' E 004°20'0 0.0
2017-Nov-12 07:00N 51°17' E 004°20'0 0.0
2017-Nov-12 06:30N 51°17' E 004°20'0 0.0
2017-Nov-12 06:00N 51°17' E 004°20'0 0.0
2017-Nov-12 05:30N 51°17' E 004°20'0 0.0
2017-Nov-12 05:00N 51°17' E 004°20'0 0.0
2017-Nov-12 04:30N 51°17' E 004°20'0 0.0
2017-Nov-12 04:00N 51°17' E 004°20'0 0.0
2017-Nov-12 03:30N 51°17' E 004°20'0 0.0
2017-Nov-12 03:00N 51°17' E 004°20'0 0.0
2017-Nov-12 02:30N 51°17' E 004°20'0 0.0
2017-Nov-12 02:00N 51°17' E 004°20'0 0.0
2017-Nov-12 01:30N 51°17' E 004°20'0 0.0
2017-Nov-12 01:00N 51°17' E 004°20'0 0.0
2017-Nov-12 00:30N 51°17' E 004°20'0 0.0
2017-Nov-12 00:00N 51°17' E 004°20'0 0.0
2017-Nov-11 23:30N 51°17' E 004°20'0 0.0
2017-Nov-11 23:00N 51°17' E 004°20'0 0.0
2017-Nov-11 22:30N 51°17' E 004°20'0 0.0
2017-Nov-11 22:00N 51°17' E 004°20'0 0.0
2017-Nov-11 21:30N 51°17' E 004°20'0 0.0
2017-Nov-11 21:00N 51°17' E 004°20'0 0.0
2017-Nov-11 20:30N 51°17' E 004°20'0 0.0
2017-Nov-11 20:00N 51°17' E 004°20'0 0.0
2017-Nov-11 19:30N 51°17' E 004°20'0 0.0
2017-Nov-11 19:00N 51°17' E 004°20'0 0.0
2017-Nov-11 18:30N 51°17' E 004°20'0 0.0
2017-Nov-11 18:00N 51°17' E 004°20'0 0.0
2017-Nov-11 17:30N 51°17' E 004°20'0 0.0
2017-Nov-11 17:00N 51°17' E 004°20'0 0.0
2017-Nov-11 16:30N 51°17' E 004°20'0 0.0
2017-Nov-11 16:00N 51°17' E 004°20'0 0.0
2017-Nov-11 15:30N 51°17' E 004°20'0 0.0
2017-Nov-11 15:00N 51°17' E 004°20'0 0.0
2017-Nov-11 14:30N 51°17' E 004°20'0 0.0
2017-Nov-11 14:00N 51°17' E 004°20'0 0.0
2017-Nov-11 13:30N 51°17' E 004°20'0 0.0
2017-Nov-11 13:00N 51°17' E 004°20'0 0.0
2017-Nov-11 12:30N 51°17' E 004°20'0 0.0
2017-Nov-11 12:00N 51°17' E 004°20'0 0.0
2017-Nov-11 11:30N 51°17' E 004°20'0 0.0
2017-Nov-11 11:00N 51°17' E 004°20'0 0.0
2017-Nov-11 10:30N 51°17' E 004°20'0 0.0
2017-Nov-11 10:00N 51°17' E 004°20'0 0.0
2017-Nov-11 09:30N 51°17' E 004°20'0 0.0
2017-Nov-11 09:00N 51°17' E 004°20'0 0.0
2017-Nov-11 08:30N 51°17' E 004°20'0 0.0
2017-Nov-11 08:00N 51°17' E 004°20'0 0.0
2017-Nov-11 07:30N 51°17' E 004°20'0 0.0
2017-Nov-11 07:00N 51°17' E 004°20'0 0.0
2017-Nov-11 06:30N 51°17' E 004°20'0 0.0
2017-Nov-11 06:00N 51°17' E 004°20'0 0.0
2017-Nov-11 05:30N 51°17' E 004°20'0 0.0
2017-Nov-11 05:00N 51°17' E 004°20'0 0.0
2017-Nov-11 04:30N 51°17' E 004°20'0 0.0
2017-Nov-11 04:00N 51°17' E 004°20'0 0.0
2017-Nov-11 03:30N 51°17' E 004°20'0 0.0
2017-Nov-11 03:00N 51°17' E 004°20'0 0.0
2017-Nov-11 02:24N 51°17' E 004°20'0 0.0
2017-Nov-11 02:00N 51°17' E 004°20'0 0.0
2017-Nov-11 01:30N 51°17' E 004°20'0 0.0
2017-Nov-11 01:00N 51°17' E 004°20'0 0.0
2017-Nov-11 00:30N 51°17' E 004°20'0 0.0
2017-Nov-11 00:00N 51°17' E 004°20'0 0.0
2017-Nov-10 23:30N 51°17' E 004°20'0 0.0
2017-Nov-10 22:57N 51°17' E 004°20'0 0.0
2017-Nov-10 22:30N 51°17' E 004°20'0 0.0
2017-Nov-10 22:00N 51°17' E 004°20'0 0.0
2017-Nov-10 21:27N 51°17' E 004°20'0 0.0
2017-Nov-10 21:00N 51°17' E 004°20'0 0.0
2017-Nov-10 20:30N 51°17' E 004°20'0 0.0
2017-Nov-10 20:00N 51°17' E 004°20'0 0.0
2017-Nov-10 19:30N 51°17' E 004°20'0 0.0
2017-Nov-10 19:00N 51°17' E 004°20'0 0.0
2017-Nov-10 18:30N 51°17' E 004°20'0 0.0
2017-Nov-10 18:00N 51°17' E 004°20'0 0.0
2017-Nov-10 17:30N 51°17' E 004°20'0 0.0
2017-Nov-10 17:00N 51°17' E 004°20'0 0.0
2017-Nov-10 16:30N 51°17' E 004°20'0 0.0
2017-Nov-10 16:00N 51°17' E 004°20'0 0.0
2017-Nov-10 15:30N 51°17' E 004°20'0 0.0
2017-Nov-10 15:00N 51°17' E 004°20'0 0.0
2017-Nov-10 14:30N 51°17' E 004°20'0 0.0
2017-Nov-10 14:00N 51°17' E 004°20'0 0.0
2017-Nov-10 13:30N 51°17' E 004°20'0 0.0
2017-Nov-10 13:00N 51°17' E 004°20'0 0.0
2017-Nov-10 12:30N 51°17' E 004°20'0 0.0
2017-Nov-10 12:00N 51°17' E 004°20'0 0.0
2017-Nov-10 11:30N 51°17' E 004°20'0 0.0
2017-Nov-10 11:00N 51°17' E 004°20'0 0.0
2017-Nov-10 10:30N 51°17' E 004°20'0 0.0
2017-Nov-10 10:00N 51°17' E 004°20'0 0.0
2017-Nov-10 09:30N 51°17' E 004°20'0 0.0
2017-Nov-10 09:00N 51°17' E 004°20'0 0.0
2017-Nov-10 08:30N 51°17' E 004°20'0 0.0
2017-Nov-10 08:00N 51°17' E 004°20'0 0.0
2017-Nov-10 07:30N 51°17' E 004°20'0 0.0
2017-Nov-10 06:57N 51°17' E 004°20'0 0.0
2017-Nov-10 06:30N 51°17' E 004°20'0 0.0
2017-Nov-10 06:00N 51°17' E 004°20'0 0.0
2017-Nov-10 05:30N 51°17' E 004°20'0 0.0
2017-Nov-10 05:00N 51°17' E 004°20'0 0.0
2017-Nov-10 04:30N 51°17' E 004°20'0 0.0
2017-Nov-10 04:00N 51°17' E 004°20'0 0.0
2017-Nov-10 03:30N 51°17' E 004°20'0 0.0
2017-Nov-10 03:00N 51°17' E 004°20'0 0.0
2017-Nov-10 02:30N 51°17' E 004°20'0 0.0
2017-Nov-10 02:00N 51°17' E 004°20'0 0.0
2017-Nov-10 01:30N 51°17' E 004°20'0 0.0
2017-Nov-10 01:00N 51°17' E 004°20'0 0.0
2017-Nov-10 00:30N 51°17' E 004°20'0 0.0
2017-Nov-10 00:00N 51°17' E 004°20'0 0.0
2017-Nov-09 23:27N 51°17' E 004°20'0 0.0
2017-Nov-09 22:57N 51°17' E 004°20'0 0.0
2017-Nov-09 22:30N 51°17' E 004°20'0 0.0
2017-Nov-09 22:00N 51°17' E 004°20'0 0.0
2017-Nov-09 21:30N 51°17' E 004°20'0 0.0
2017-Nov-09 21:00N 51°17' E 004°20'0 0.0
2017-Nov-09 20:30N 51°17' E 004°20'0 0.0
2017-Nov-09 19:54N 51°17' E 004°20'0 0.0
2017-Nov-09 19:30N 51°17' E 004°20'0 0.0
2017-Nov-09 18:57N 51°17' E 004°20'0 0.0
2017-Nov-09 18:30N 51°17' E 004°20'0 0.0
2017-Nov-09 18:00N 51°17' E 004°20'0 0.0
2017-Nov-09 17:30N 51°17' E 004°20'0 0.0
2017-Nov-09 17:00N 51°17' E 004°20'0 0.0
2017-Nov-09 16:30N 51°17' E 004°20'0 0.0
2017-Nov-09 16:00N 51°17' E 004°20'0 0.0
2017-Nov-09 15:30N 51°17' E 004°20'0 0.0
2017-Nov-09 15:00N 51°17' E 004°20'0 0.0
2017-Nov-09 14:30N 51°17' E 004°20'0 0.0
2017-Nov-09 14:00N 51°17' E 004°20'0 0.0
2017-Nov-09 13:30N 51°17' E 004°20'0 0.0
2017-Nov-09 12:54N 51°17' E 004°20'0 0.0
2017-Nov-09 12:30N 51°17' E 004°20'0 0.0
2017-Nov-09 12:00N 51°17' E 004°20'0 0.0
2017-Nov-09 11:30N 51°17' E 004°20'0 0.0
2017-Nov-09 11:00N 51°17' E 004°20'0 0.0
2017-Nov-09 10:30N 51°17' E 004°20'0 0.0
2017-Nov-09 10:00N 51°17' E 004°20'0 0.0
2017-Nov-09 09:30N 51°17' E 004°20'0 0.0
2017-Nov-09 09:00N 51°17' E 004°20'0 0.0
2017-Nov-09 08:30N 51°17' E 004°20'0 0.0
2017-Nov-09 08:00N 51°17' E 004°20'0 0.0
2017-Nov-09 07:30N 51°17' E 004°20'0 0.0
2017-Nov-09 07:00N 51°17' E 004°20'0 0.0
2017-Nov-09 06:30N 51°17' E 004°20'0 0.0
2017-Nov-09 06:00N 51°17' E 004°20'0 0.0
2017-Nov-09 05:30N 51°17' E 004°20'0 0.0
2017-Nov-09 05:00N 51°17' E 004°20'0 0.0
2017-Nov-09 04:30N 51°17' E 004°20'0 0.0
2017-Nov-09 03:57N 51°17' E 004°20'0 0.0
2017-Nov-09 03:30N 51°17' E 004°20'0 0.0
2017-Nov-09 03:00N 51°17' E 004°20'0 0.0
2017-Nov-09 02:30N 51°17' E 004°20'0 0.0
2017-Nov-09 02:00N 51°17' E 004°20'0 0.0
2017-Nov-09 01:30N 51°17' E 004°20'0 0.0
2017-Nov-09 01:00N 51°17' E 004°20'0 0.0
2017-Nov-09 00:30N 51°17' E 004°20'0 0.0
2017-Nov-09 00:00N 51°17' E 004°20'0 0.0
2017-Nov-08 23:27N 51°17' E 004°20'0 0.0
2017-Nov-08 23:00N 51°17' E 004°20'0 0.0
2017-Nov-08 22:30N 51°17' E 004°20'0 0.0
2017-Nov-08 22:00N 51°17' E 004°20'0 0.0
2017-Nov-08 21:30N 51°17' E 004°20'0 0.0
2017-Nov-08 20:57N 51°17' E 004°20'0 0.0
2017-Nov-08 20:30N 51°17' E 004°20'0 0.0
2017-Nov-08 20:00N 51°17' E 004°20'0 0.0
2017-Nov-08 19:30N 51°17' E 004°20'0 0.0
2017-Nov-08 18:57N 51°17' E 004°20'0 0.0
2017-Nov-08 18:30N 51°17' E 004°20'0 0.0
2017-Nov-08 18:00N 51°17' E 004°20'0 0.0
2017-Nov-08 17:30N 51°17' E 004°20'0 0.0
2017-Nov-08 17:00N 51°17' E 004°20'0 0.0
2017-Nov-08 16:30N 51°17' E 004°20'0 0.0
2017-Nov-08 16:00N 51°17' E 004°20'0 0.0
2017-Nov-08 15:30N 51°17' E 004°20'0 0.0
2017-Nov-08 14:57N 51°17' E 004°20'0 0.0
2017-Nov-08 14:27N 51°17' E 004°20'0 0.0
2017-Nov-08 14:00N 51°17' E 004°20'0 0.0
2017-Nov-08 13:30N 51°17' E 004°20'0 0.0
2017-Nov-08 13:00N 51°17' E 004°20'0 0.0
2017-Nov-08 12:30N 51°17' E 004°20'0 0.0
2017-Nov-08 12:00N 51°17' E 004°20'0 0.0
2017-Nov-08 11:30N 51°17' E 004°20'0 0.0
2017-Nov-08 11:00N 51°17' E 004°20'0 0.0
2017-Nov-08 10:30N 51°17' E 004°20'0 0.0
2017-Nov-08 10:00N 51°17' E 004°20'0 0.0
2017-Nov-08 09:30N 51°17' E 004°20'0 0.0
2017-Nov-08 09:00N 51°17' E 004°20'0 0.0
2017-Nov-08 08:30N 51°17' E 004°20'0 0.0
2017-Nov-08 08:00N 51°17' E 004°20'0 0.0
2017-Nov-08 07:30N 51°17' E 004°20'0 0.0
2017-Nov-08 07:00N 51°17' E 004°20'0 0.0
2017-Nov-08 06:29N 51°17' E 004°20'0 0.0
2017-Nov-08 06:00N 51°17' E 004°20'0 0.0
2017-Nov-08 05:29N 51°17' E 004°20'0 0.0
2017-Nov-08 05:00N 51°17' E 004°20'0 0.0
2017-Nov-08 04:30N 51°17' E 004°20'0 0.0
2017-Nov-08 03:59N 51°17' E 004°20'0 0.0
2017-Nov-08 03:29N 51°17' E 004°20'0 0.0
2017-Nov-08 03:00N 51°17' E 004°20'0 0.0
2017-Nov-08 02:29N 51°17' E 004°20'0 0.0
2017-Nov-08 02:00N 51°17' E 004°20'0 0.0
2017-Nov-08 01:29N 51°17' E 004°20'0 0.0
2017-Nov-08 01:00N 51°17' E 004°20'  

Dump ship's entire track history